sensor_id;sensor_type;location;lat;lon;timestamp;pressure;altitude;pressure_sealevel;temperature;humidity
64080;BME280;51042;49.696;10.808;2023-02-28T00:01:19;99410.66;;;-4.15;93.85
64080;BME280;51042;49.696;10.808;2023-02-28T00:03:44;99406.75;;;-4.17;94.31
64080;BME280;51042;49.696;10.808;2023-02-28T00:06:09;99406.56;;;-4.21;93.75
64080;BME280;51042;49.696;10.808;2023-02-28T00:08:34;99411.91;;;-4.29;94.08
64080;BME280;51042;49.696;10.808;2023-02-28T00:11:07;99406.53;;;-4.38;95.10
64080;BME280;51042;49.696;10.808;2023-02-28T00:13:34;99401.31;;;-4.43;95.41
64080;BME280;51042;49.696;10.808;2023-02-28T00:16:03;99400.22;;;-4.42;95.72
64080;BME280;51042;49.696;10.808;2023-02-28T00:18:28;99404.94;;;-4.39;95.58
64080;BME280;51042;49.696;10.808;2023-02-28T00:20:53;99407.97;;;-4.32;95.10
64080;BME280;51042;49.696;10.808;2023-02-28T00:23:18;99401.03;;;-4.33;94.55
64080;BME280;51042;49.696;10.808;2023-02-28T00:25:44;99399.44;;;-4.42;94.81
64080;BME280;51042;49.696;10.808;2023-02-28T00:28:09;99405.84;;;-4.52;94.70
64080;BME280;51042;49.696;10.808;2023-02-28T00:30:34;99412.31;;;-4.53;95.92
64080;BME280;51042;49.696;10.808;2023-02-28T00:32:59;99406.97;;;-4.53;95.62
64080;BME280;51042;49.696;10.808;2023-02-28T00:35:25;99406.97;;;-4.53;95.99
64080;BME280;51042;49.696;10.808;2023-02-28T00:37:50;99405.69;;;-4.56;95.92
64080;BME280;51042;49.696;10.808;2023-02-28T00:40:15;99400.03;;;-4.54;95.34
64080;BME280;51042;49.696;10.808;2023-02-28T00:42:40;99390.56;;;-4.52;95.47
64080;BME280;51042;49.696;10.808;2023-02-28T00:45:05;99400.81;;;-4.54;95.40
64080;BME280;51042;49.696;10.808;2023-02-28T00:47:31;99397.66;;;-4.56;95.48
64080;BME280;51042;49.696;10.808;2023-02-28T00:49:56;99409.75;;;-4.58;95.51
64080;BME280;51042;49.696;10.808;2023-02-28T00:52:22;99401.88;;;-4.63;96.14
64080;BME280;51042;49.696;10.808;2023-02-28T00:54:47;99397.28;;;-4.71;96.10
64080;BME280;51042;49.696;10.808;2023-02-28T00:57:12;99396.16;;;-4.79;97.39
64080;BME280;51042;49.696;10.808;2023-02-28T00:59:37;99396.66;;;-4.77;97.13
64080;BME280;51042;49.696;10.808;2023-02-28T01:02:02;99401.38;;;-4.74;97.32
64080;BME280;51042;49.696;10.808;2023-02-28T01:04:27;99398.69;;;-4.74;97.38
64080;BME280;51042;49.696;10.808;2023-02-28T01:06:53;99391.75;;;-4.75;97.23
64080;BME280;51042;49.696;10.808;2023-02-28T01:09:18;99381.22;;;-4.71;97.75
64080;BME280;51042;49.696;10.808;2023-02-28T01:11:43;99392.59;;;-4.66;97.75
64080;BME280;51042;49.696;10.808;2023-02-28T01:14:11;99380.63;;;-4.60;97.46
64080;BME280;51042;49.696;10.808;2023-02-28T01:16:37;99378.56;;;-4.63;96.81
64080;BME280;51042;49.696;10.808;2023-02-28T01:19:02;99381.09;;;-4.66;97.32
64080;BME280;51042;49.696;10.808;2023-02-28T01:21:27;99381.09;;;-4.66;97.19
64080;BME280;51042;49.696;10.808;2023-02-28T01:23:52;99385.66;;;-4.67;97.74
64080;BME280;51042;49.696;10.808;2023-02-28T01:26:21;99378.56;;;-4.63;98.26
64080;BME280;51042;49.696;10.808;2023-02-28T01:28:47;99381.38;;;-4.68;97.71
64080;BME280;51042;49.696;10.808;2023-02-28T01:31:12;99371.13;;;-4.74;97.72
64080;BME280;51042;49.696;10.808;2023-02-28T01:33:37;99374.09;;;-4.76;98.41
64080;BME280;51042;49.696;10.808;2023-02-28T01:36:07;99378.03;;;-4.82;98.11
64080;BME280;51042;49.696;10.808;2023-02-28T01:38:33;99373.47;;;-4.81;98.50
64080;BME280;51042;49.696;10.808;2023-02-28T01:40:59;99371.13;;;-4.83;99.22
64080;BME280;51042;49.696;10.808;2023-02-28T01:43:29;99372.03;;;-4.87;98.97
64080;BME280;51042;49.696;10.808;2023-02-28T01:45:55;99372.03;;;-4.87;99.12
64080;BME280;51042;49.696;10.808;2023-02-28T01:48:21;99373.78;;;-4.83;99.80
64080;BME280;51042;49.696;10.808;2023-02-28T01:50:48;99368.75;;;-4.84;99.10
64080;BME280;51042;49.696;10.808;2023-02-28T01:53:15;99374.88;;;-4.84;98.96
64080;BME280;51042;49.696;10.808;2023-02-28T01:55:42;99366.53;;;-4.82;98.96
64080;BME280;51042;49.696;10.808;2023-02-28T01:58:10;99370.47;;;-4.80;99.58
64080;BME280;51042;49.696;10.808;2023-02-28T02:00:35;99360.72;;;-4.76;98.99
64080;BME280;51042;49.696;10.808;2023-02-28T02:03:04;99367.06;;;-4.72;99.15
64080;BME280;51042;49.696;10.808;2023-02-28T02:05:31;99358.88;;;-4.67;98.53
64080;BME280;51042;49.696;10.808;2023-02-28T02:07:57;99359.34;;;-4.65;98.20
64080;BME280;51042;49.696;10.808;2023-02-28T02:10:30;99350.41;;;-4.60;98.66
64080;BME280;51042;49.696;10.808;2023-02-28T02:15:56;99344.56;;;-4.62;98.08
64080;BME280;51042;49.696;10.808;2023-02-28T02:18:33;99344.41;;;-4.66;98.67
64080;BME280;51042;49.696;10.808;2023-02-28T02:26:28;99336.97;;;-4.77;98.87
64080;BME280;51042;49.696;10.808;2023-02-28T02:36:51;99338.06;;;-4.78;99.20
64080;BME280;51042;49.696;10.808;2023-02-28T02:39:25;99330.47;;;-4.76;99.34
64080;BME280;51042;49.696;10.808;2023-02-28T02:41:54;99332.56;;;-4.73;99.94
64080;BME280;51042;49.696;10.808;2023-02-28T02:47:24;99332.41;;;-4.77;100.00
64080;BME280;51042;49.696;10.808;2023-02-28T02:49:55;99329.88;;;-4.73;99.96
64080;BME280;51042;49.696;10.808;2023-02-28T02:52:22;99333.34;;;-4.73;99.66
64080;BME280;51042;49.696;10.808;2023-02-28T02:54:49;99336.03;;;-4.73;99.82
64080;BME280;51042;49.696;10.808;2023-02-28T02:57:17;99329.25;;;-4.70;99.48
64080;BME280;51042;49.696;10.808;2023-02-28T02:59:45;99333.50;;;-4.69;98.99
64080;BME280;51042;49.696;10.808;2023-02-28T03:02:11;99334.78;;;-4.67;99.12
64080;BME280;51042;49.696;10.808;2023-02-28T03:04:39;99333.50;;;-4.69;98.77
64080;BME280;51042;49.696;10.808;2023-02-28T03:07:06;99337.13;;;-4.74;98.50
64080;BME280;51042;49.696;10.808;2023-02-28T03:09:32;99336.19;;;-4.78;98.85
64080;BME280;51042;49.696;10.808;2023-02-28T03:11:58;99340.53;;;-4.82;99.47
64080;BME280;51042;49.696;10.808;2023-02-28T03:14:45;99342.13;;;-4.81;99.54
64080;BME280;51042;49.696;10.808;2023-02-28T03:27:46;99341.53;;;-4.69;98.91
64080;BME280;51042;49.696;10.808;2023-02-28T03:32:50;99341.53;;;-4.69;99.33
64080;BME280;51042;49.696;10.808;2023-02-28T03:35:17;99348.16;;;-4.67;98.37
64080;BME280;51042;49.696;10.808;2023-02-28T03:37:48;99353.03;;;-4.69;98.32
64080;BME280;51042;49.696;10.808;2023-02-28T03:40:15;99355.06;;;-4.74;98.51
64080;BME280;51042;49.696;10.808;2023-02-28T03:42:42;99353.19;;;-4.74;99.00
64080;BME280;51042;49.696;10.808;2023-02-28T03:45:19;99352.38;;;-4.74;99.31
64080;BME280;51042;49.696;10.808;2023-02-28T03:47:57;99354.28;;;-4.75;98.77
64080;BME280;51042;49.696;10.808;2023-02-28T03:50:25;99350.16;;;-4.81;99.37
64080;BME280;51042;49.696;10.808;2023-02-28T03:53:00;99354.88;;;-4.86;98.78
64080;BME280;51042;49.696;10.808;2023-02-28T03:55:28;99357.38;;;-4.90;99.99
64080;BME280;51042;49.696;10.808;2023-02-28T03:57:59;99350.28;;;-4.95;100.00
64080;BME280;51042;49.696;10.808;2023-02-28T04:00:31;99346.81;;;-4.95;100.00
64080;BME280;51042;49.696;10.808;2023-02-28T04:02:57;99349.66;;;-4.91;100.00
64080;BME280;51042;49.696;10.808;2023-02-28T04:05:23;99355.81;;;-4.82;100.00
64080;BME280;51042;49.696;10.808;2023-02-28T04:07:48;99353.13;;;-4.82;99.97
64080;BME280;51042;49.696;10.808;2023-02-28T04:10:14;99361.06;;;-4.77;99.34
64080;BME280;51042;49.696;10.808;2023-02-28T04:12:40;99356.50;;;-4.77;98.91
64080;BME280;51042;49.696;10.808;2023-02-28T04:15:05;99359.78;;;-4.80;99.41
64080;BME280;51042;49.696;10.808;2023-02-28T04:17:30;99363.59;;;-4.72;99.75
64080;BME280;51042;49.696;10.808;2023-02-28T04:19:55;99356.81;;;-4.70;99.20
64080;BME280;51042;49.696;10.808;2023-02-28T04:22:22;99357.34;;;-4.59;99.44
64080;BME280;51042;49.696;10.808;2023-02-28T04:24:47;99358.44;;;-4.52;97.41
64080;BME280;51042;49.696;10.808;2023-02-28T04:27:12;99358.47;;;-4.43;97.04
64080;BME280;51042;49.696;10.808;2023-02-28T04:29:37;99354.84;;;-4.47;97.07
64080;BME280;51042;49.696;10.808;2023-02-28T04:32:03;99356.56;;;-4.42;97.18
64080;BME280;51042;49.696;10.808;2023-02-28T04:34:29;99349.00;;;-4.40;97.05
64080;BME280;51042;49.696;10.808;2023-02-28T04:36:55;99354.53;;;-4.37;96.64
64080;BME280;51042;49.696;10.808;2023-02-28T04:39:21;99355.16;;;-4.31;96.44
64080;BME280;51042;49.696;10.808;2023-02-28T04:41:46;99360.38;;;-4.26;95.88
64080;BME280;51042;49.696;10.808;2023-02-28T04:44:12;99352.66;;;-4.19;95.37
64080;BME280;51042;49.696;10.808;2023-02-28T04:46:37;99357.72;;;-4.09;94.66
64080;BME280;51042;49.696;10.808;2023-02-28T04:49:02;99348.88;;;-4.09;93.96
64080;BME280;51042;49.696;10.808;2023-02-28T04:51:28;99358.34;;;-4.12;93.95
64080;BME280;51042;49.696;10.808;2023-02-28T04:53:53;99353.28;;;-4.14;94.86
64080;BME280;51042;49.696;10.808;2023-02-28T04:56:18;99345.88;;;-4.08;93.99
64080;BME280;51042;49.696;10.808;2023-02-28T04:58:44;99350.31;;;-4.12;94.05
64080;BME280;51042;49.696;10.808;2023-02-28T05:01:23;99346.34;;;-4.15;94.70
64080;BME280;51042;49.696;10.808;2023-02-28T05:03:49;99348.56;;;-4.17;94.49
64080;BME280;51042;49.696;10.808;2023-02-28T05:06:15;99358.00;;;-4.11;94.51
64080;BME280;51042;49.696;10.808;2023-02-28T05:08:40;99355.03;;;-4.09;94.22
64080;BME280;51042;49.696;10.808;2023-02-28T05:11:07;99356.13;;;-4.10;94.05
64080;BME280;51042;49.696;10.808;2023-02-28T05:13:33;99364.16;;;-4.10;94.62
64080;BME280;51042;49.696;10.808;2023-02-28T05:15:59;99353.78;;;-4.03;93.98
64080;BME280;51042;49.696;10.808;2023-02-28T05:18:24;99358.81;;;-4.01;93.71
64080;BME280;51042;49.696;10.808;2023-02-28T05:20:50;99363.53;;;-3.98;94.08
64080;BME280;51042;49.696;10.808;2023-02-28T05:23:15;99361.81;;;-4.03;94.00
64080;BME280;51042;49.696;10.808;2023-02-28T05:25:41;99363.25;;;-4.05;93.88
64080;BME280;51042;49.696;10.808;2023-02-28T05:28:07;99361.03;;;-4.03;93.92
64080;BME280;51042;49.696;10.808;2023-02-28T05:30:32;99364.19;;;-4.01;93.75
64080;BME280;51042;49.696;10.808;2023-02-28T05:32:57;99366.38;;;-4.03;94.33
64080;BME280;51042;49.696;10.808;2023-02-28T05:35:24;99361.03;;;-4.03;94.39
64080;BME280;51042;49.696;10.808;2023-02-28T05:37:49;99362.75;;;-4.07;94.09
64080;BME280;51042;49.696;10.808;2023-02-28T05:40:14;99370.31;;;-4.09;94.57
64080;BME280;51042;49.696;10.808;2023-02-28T05:42:40;99375.53;;;-4.13;94.98
64080;BME280;51042;49.696;10.808;2023-02-28T05:45:05;99368.88;;;-4.16;95.00
64080;BME280;51042;49.696;10.808;2023-02-28T05:47:31;99374.44;;;-4.12;94.77
64080;BME280;51042;49.696;10.808;2023-02-28T05:49:57;99377.41;;;-4.14;95.11
64080;BME280;51042;49.696;10.808;2023-02-28T05:52:22;99378.03;;;-4.17;95.25
64080;BME280;51042;49.696;10.808;2023-02-28T05:54:47;99379.44;;;-4.11;95.22
64080;BME280;51042;49.696;10.808;2023-02-28T05:57:12;99380.25;;;-4.10;95.13
64080;BME280;51042;49.696;10.808;2023-02-28T05:59:38;99386.25;;;-4.04;95.00
64080;BME280;51042;49.696;10.808;2023-02-28T06:02:05;99390.69;;;-4.00;94.56
64080;BME280;51042;49.696;10.808;2023-02-28T06:04:30;99388.78;;;-3.99;94.74
64080;BME280;51042;49.696;10.808;2023-02-28T06:06:55;99390.34;;;-3.98;94.13
64080;BME280;51042;49.696;10.808;2023-02-28T06:09:22;99384.97;;;-3.98;93.87
64080;BME280;51042;49.696;10.808;2023-02-28T06:11:47;99385.94;;;-3.94;93.96
64080;BME280;51042;49.696;10.808;2023-02-28T06:14:17;99382.78;;;-3.96;94.13
64080;BME280;51042;49.696;10.808;2023-02-28T06:16:42;99397.28;;;-3.97;94.01
64080;BME280;51042;49.696;10.808;2023-02-28T06:19:08;99399.19;;;-3.98;94.26
64080;BME280;51042;49.696;10.808;2023-02-28T06:21:33;99399.66;;;-3.96;94.59
64080;BME280;51042;49.696;10.808;2023-02-28T06:23:59;99397.63;;;-3.90;94.43
64080;BME280;51042;49.696;10.808;2023-02-28T06:26:24;99400.94;;;-3.85;93.50
64080;BME280;51042;49.696;10.808;2023-02-28T06:28:49;99399.34;;;-3.77;93.46
64080;BME280;51042;49.696;10.808;2023-02-28T06:31:15;99400.47;;;-3.69;93.01
64080;BME280;51042;49.696;10.808;2023-02-28T06:33:41;99404.72;;;-3.60;92.17
64080;BME280;51042;49.696;10.808;2023-02-28T06:36:07;99396.81;;;-3.48;91.63
64080;BME280;51042;49.696;10.808;2023-02-28T06:38:34;99405.31;;;-3.37;91.01
64080;BME280;51042;49.696;10.808;2023-02-28T06:40:59;99400.41;;;-3.26;90.13
64080;BME280;51042;49.696;10.808;2023-02-28T06:43:25;99399.59;;;-3.18;89.98
64080;BME280;51042;49.696;10.808;2023-02-28T06:45:56;99410.59;;;-3.03;88.81
64080;BME280;51042;49.696;10.808;2023-02-28T06:48:21;99414.50;;;-2.83;87.40
64080;BME280;51042;49.696;10.808;2023-02-28T06:50:46;99414.50;;;-2.83;86.17
64080;BME280;51042;49.696;10.808;2023-02-28T06:53:11;99407.38;;;-2.79;86.89
64080;BME280;51042;49.696;10.808;2023-02-28T06:55:37;99413.69;;;-2.75;86.20
64080;BME280;51042;49.696;10.808;2023-02-28T06:58:02;99415.53;;;-2.67;85.59
64080;BME280;51042;49.696;10.808;2023-02-28T07:00:27;99419.00;;;-2.58;84.07
64080;BME280;51042;49.696;10.808;2023-02-28T07:02:53;99415.16;;;-2.48;84.09
64080;BME280;51042;49.696;10.808;2023-02-28T07:05:19;99412.09;;;-2.38;84.44
64080;BME280;51042;49.696;10.808;2023-02-28T07:07:45;99419.78;;;-2.28;83.46
64080;BME280;51042;49.696;10.808;2023-02-28T07:10:11;99421.50;;;-2.23;83.07
64080;BME280;51042;49.696;10.808;2023-02-28T07:12:37;99427.75;;;-2.11;82.59
64080;BME280;51042;49.696;10.808;2023-02-28T07:15:03;99419.19;;;-2.04;82.13
64080;BME280;51042;49.696;10.808;2023-02-28T07:17:29;99425.28;;;-1.95;82.00
64080;BME280;51042;49.696;10.808;2023-02-28T07:19:54;99422.22;;;-1.85;80.86
64080;BME280;51042;49.696;10.808;2023-02-28T07:22:19;99414.84;;;-1.76;81.06
64080;BME280;51042;49.696;10.808;2023-02-28T07:24:44;99415.19;;;-1.77;79.71
64080;BME280;51042;49.696;10.808;2023-02-28T07:27:09;99435.91;;;-1.78;80.66
64080;BME280;51042;49.696;10.808;2023-02-28T07:29:34;99420.03;;;-1.71;80.10
64080;BME280;51042;49.696;10.808;2023-02-28T07:31:59;99433.97;;;-1.69;79.45
64080;BME280;51042;49.696;10.808;2023-02-28T07:34:25;99426.75;;;-1.56;79.05
64080;BME280;51042;49.696;10.808;2023-02-28T07:36:52;99430.69;;;-1.74;79.20
64080;BME280;51042;49.696;10.808;2023-02-28T07:39:18;99425.50;;;-1.79;80.62
64080;BME280;51042;49.696;10.808;2023-02-28T07:41:43;99428.31;;;-1.76;79.30
64080;BME280;51042;49.696;10.808;2023-02-28T07:44:09;99426.59;;;-1.59;79.68
64080;BME280;51042;49.696;10.808;2023-02-28T07:46:34;99430.72;;;-1.41;79.25
64080;BME280;51042;49.696;10.808;2023-02-28T07:49:01;99433.25;;;-1.24;78.04
64080;BME280;51042;49.696;10.808;2023-02-28T07:51:27;99430.81;;;-1.17;77.33
64080;BME280;51042;49.696;10.808;2023-02-28T07:53:53;99424.19;;;-1.19;76.37
64080;BME280;51042;49.696;10.808;2023-02-28T07:56:18;99424.31;;;-1.16;77.88
64080;BME280;51042;49.696;10.808;2023-02-28T07:58:43;99432.84;;;-1.14;76.25
64080;BME280;51042;49.696;10.808;2023-02-28T08:01:09;99431.59;;;-1.16;76.28
64080;BME280;51042;49.696;10.808;2023-02-28T08:03:34;99414.91;;;-1.10;75.97
64080;BME280;51042;49.696;10.808;2023-02-28T08:06:00;99424.59;;;-0.97;76.23
64080;BME280;51042;49.696;10.808;2023-02-28T08:08:27;99428.47;;;-0.73;75.58
64080;BME280;51042;49.696;10.808;2023-02-28T08:10:57;99433.06;;;-0.74;75.04
64080;BME280;51042;49.696;10.808;2023-02-28T08:13:22;99418.25;;;-0.68;75.00
64080;BME280;51042;49.696;10.808;2023-02-28T08:15:48;99423.19;;;-0.70;74.39
64080;BME280;51042;49.696;10.808;2023-02-28T08:18:13;99418.69;;;-0.78;74.02
64080;BME280;51042;49.696;10.808;2023-02-28T08:20:38;99427.88;;;-0.79;74.74
64080;BME280;51042;49.696;10.808;2023-02-28T08:23:03;99419.81;;;-0.67;75.10
64080;BME280;51042;49.696;10.808;2023-02-28T08:25:28;99418.38;;;-0.52;73.60
64080;BME280;51042;49.696;10.808;2023-02-28T08:27:54;99417.56;;;-0.53;73.77
64080;BME280;51042;49.696;10.808;2023-02-28T08:30:19;99430.16;;;-0.45;73.80
64080;BME280;51042;49.696;10.808;2023-02-28T08:32:44;99425.66;;;-0.41;72.15
64080;BME280;51042;49.696;10.808;2023-02-28T08:35:09;99424.22;;;-0.38;71.88
64080;BME280;51042;49.696;10.808;2023-02-28T08:37:35;99423.09;;;-0.37;71.88
64080;BME280;51042;49.696;10.808;2023-02-28T08:40:00;99422.88;;;-0.20;71.56
64080;BME280;51042;49.696;10.808;2023-02-28T08:42:25;99410.50;;;-0.09;70.74
64080;BME280;51042;49.696;10.808;2023-02-28T08:44:51;99416.31;;;0.06;71.00
64080;BME280;51042;49.696;10.808;2023-02-28T08:47:16;99415.16;;;0.19;69.81
64080;BME280;51042;49.696;10.808;2023-02-28T08:49:41;99416.88;;;0.11;69.88
64080;BME280;51042;49.696;10.808;2023-02-28T08:52:06;99413.25;;;0.19;68.80
64080;BME280;51042;49.696;10.808;2023-02-28T08:54:31;99417.97;;;0.22;68.38
64080;BME280;51042;49.696;10.808;2023-02-28T08:56:58;99419.09;;;0.21;68.21
64080;BME280;51042;49.696;10.808;2023-02-28T08:59:23;99417.41;;;0.29;68.51
64080;BME280;51042;49.696;10.808;2023-02-28T09:01:48;99416.06;;;0.23;66.89
64080;BME280;51042;49.696;10.808;2023-02-28T09:04:13;99419.22;;;0.13;66.37
64080;BME280;51042;49.696;10.808;2023-02-28T09:06:38;99411.75;;;0.34;67.03
64080;BME280;51042;49.696;10.808;2023-02-28T09:09:04;99416.47;;;0.37;66.28
64080;BME280;51042;49.696;10.808;2023-02-28T09:11:31;99410.78;;;0.54;65.24
64080;BME280;51042;49.696;10.808;2023-02-28T09:13:57;99408.28;;;0.61;65.24
64080;BME280;51042;49.696;10.808;2023-02-28T09:16:22;99416.06;;;0.78;63.81
64080;BME280;51042;49.696;10.808;2023-02-28T09:18:47;99417.31;;;0.81;64.59
64080;BME280;51042;49.696;10.808;2023-02-28T09:21:14;99425.13;;;0.70;63.11
64080;BME280;51042;49.696;10.808;2023-02-28T09:23:43;99409.94;;;0.94;62.59
64080;BME280;51042;49.696;10.808;2023-02-28T09:26:12;99415.41;;;0.81;64.40
64080;BME280;51042;49.696;10.808;2023-02-28T09:28:38;99420.22;;;1.04;63.45
64080;BME280;51042;49.696;10.808;2023-02-28T09:31:03;99411.41;;;0.91;62.76
64080;BME280;51042;49.696;10.808;2023-02-28T09:33:29;99413.44;;;0.94;62.71
64080;BME280;51042;49.696;10.808;2023-02-28T09:35:58;99416.25;;;1.29;63.54
64080;BME280;51042;49.696;10.808;2023-02-28T09:38:24;99421.94;;;1.24;62.64
64080;BME280;51042;49.696;10.808;2023-02-28T09:40:50;99422.97;;;1.35;62.33
64080;BME280;51042;49.696;10.808;2023-02-28T09:43:16;99416.78;;;1.19;61.86
64080;BME280;51042;49.696;10.808;2023-02-28T09:45:43;99422.09;;;1.47;61.85
64080;BME280;51042;49.696;10.808;2023-02-28T09:48:18;99419.38;;;1.31;61.15
64080;BME280;51042;49.696;10.808;2023-02-28T09:50:48;99417.16;;;0.90;62.31
64080;BME280;51042;49.696;10.808;2023-02-28T09:55:47;99417.91;;;1.34;62.12
64080;BME280;51042;49.696;10.808;2023-02-28T09:58:20;99423.81;;;1.86;61.01
64080;BME280;51042;49.696;10.808;2023-02-28T10:00:49;99421.53;;;1.88;58.77
64080;BME280;51042;49.696;10.808;2023-02-28T10:08:14;99423.72;;;1.67;58.11
64080;BME280;51042;49.696;10.808;2023-02-28T10:10:49;99428.53;;;1.74;58.44
64080;BME280;51042;49.696;10.808;2023-02-28T10:13:25;99419.66;;;1.57;58.52
64080;BME280;51042;49.696;10.808;2023-02-28T10:15:56;99420.69;;;1.69;58.69
64080;BME280;51042;49.696;10.808;2023-02-28T10:18:24;99423.13;;;1.89;57.85
64080;BME280;51042;49.696;10.808;2023-02-28T10:20:51;99425.72;;;2.01;57.96
64080;BME280;51042;49.696;10.808;2023-02-28T10:23:21;99422.09;;;2.13;57.39
64080;BME280;51042;49.696;10.808;2023-02-28T10:25:59;99419.28;;;2.25;56.77
64080;BME280;51042;49.696;10.808;2023-02-28T10:28:25;99408.94;;;2.31;57.59
64080;BME280;51042;49.696;10.808;2023-02-28T10:30:51;99423.03;;;2.21;56.41
64080;BME280;51042;49.696;10.808;2023-02-28T10:35:43;99415.44;;;2.45;56.04
64080;BME280;51042;49.696;10.808;2023-02-28T10:38:11;99415.81;;;2.44;56.01
64080;BME280;51042;49.696;10.808;2023-02-28T10:40:39;99416.78;;;2.36;55.07
64080;BME280;51042;49.696;10.808;2023-02-28T10:43:05;99409.69;;;2.66;54.12
64080;BME280;51042;49.696;10.808;2023-02-28T10:45:31;99403.91;;;2.68;55.11
64080;BME280;51042;49.696;10.808;2023-02-28T10:48:01;99401.47;;;3.05;54.30
64080;BME280;51042;49.696;10.808;2023-02-28T10:56:02;99390.75;;;3.35;53.35
64080;BME280;51042;49.696;10.808;2023-02-28T11:01:14;99391.09;;;3.79;52.50
64080;BME280;51042;49.696;10.808;2023-02-28T11:03:39;99397.66;;;3.78;53.23
64080;BME280;51042;49.696;10.808;2023-02-28T11:06:06;99398.31;;;3.71;53.35
64080;BME280;51042;49.696;10.808;2023-02-28T11:08:32;99395.97;;;3.43;53.40
64080;BME280;51042;49.696;10.808;2023-02-28T11:10:58;99408.88;;;2.85;54.44
64080;BME280;51042;49.696;10.808;2023-02-28T11:13:32;99409.78;;;2.93;54.37
64080;BME280;51042;49.696;10.808;2023-02-28T11:15:59;99401.16;;;2.87;54.68
64080;BME280;51042;49.696;10.808;2023-02-28T11:20:54;99394.31;;;3.16;54.88
64080;BME280;51042;49.696;10.808;2023-02-28T11:23:20;99394.91;;;3.06;54.03
64080;BME280;51042;49.696;10.808;2023-02-28T11:25:50;99391.28;;;2.98;54.00
64080;BME280;51042;49.696;10.808;2023-02-28T11:28:26;99397.97;;;3.04;53.96
64080;BME280;51042;49.696;10.808;2023-02-28T11:31:05;99388.41;;;3.56;54.44
64080;BME280;51042;49.696;10.808;2023-02-28T11:33:32;99395.09;;;3.62;52.82
64080;BME280;51042;49.696;10.808;2023-02-28T11:36:09;99389.41;;;3.97;52.02
64080;BME280;51042;49.696;10.808;2023-02-28T11:38:35;99392.66;;;3.80;52.20
64080;BME280;51042;49.696;10.808;2023-02-28T11:41:06;99396.66;;;3.89;52.20
64080;BME280;51042;49.696;10.808;2023-02-28T12:08:49;99376.69;;;5.01;50.04
64080;BME280;51042;49.696;10.808;2023-02-28T12:11:39;99366.09;;;4.56;51.05
64080;BME280;51042;49.696;10.808;2023-02-28T12:16:37;99374.50;;;4.43;50.90
64080;BME280;51042;49.696;10.808;2023-02-28T12:24:46;99359.88;;;4.55;50.48
64080;BME280;51042;49.696;10.808;2023-02-28T12:27:17;99362.53;;;4.18;50.58
64080;BME280;51042;49.696;10.808;2023-02-28T12:32:21;99367.03;;;4.37;50.19
64080;BME280;51042;49.696;10.808;2023-02-28T12:34:49;99349.78;;;4.56;52.45
64080;BME280;51042;49.696;10.808;2023-02-28T12:37:17;99355.72;;;5.02;51.09
64080;BME280;51042;49.696;10.808;2023-02-28T12:39:45;99344.63;;;5.21;48.44
64080;BME280;51042;49.696;10.808;2023-02-28T12:42:15;99343.09;;;4.46;49.99
64080;BME280;51042;49.696;10.808;2023-02-28T12:44:56;99346.34;;;4.59;51.72
64080;BME280;51042;49.696;10.808;2023-02-28T12:47:23;99348.13;;;4.81;49.71
64080;BME280;51042;49.696;10.808;2023-02-28T12:52:19;99341.44;;;4.38;50.56
64080;BME280;51042;49.696;10.808;2023-02-28T12:54:49;99350.34;;;5.09;49.14
64080;BME280;51042;49.696;10.808;2023-02-28T12:57:37;99344.38;;;4.59;48.98
64080;BME280;51042;49.696;10.808;2023-02-28T13:00:13;99344.66;;;4.84;50.03
64080;BME280;51042;49.696;10.808;2023-02-28T13:07:58;99342.78;;;4.88;49.57
64080;BME280;51042;49.696;10.808;2023-02-28T13:10:48;99346.75;;;4.98;50.95
64080;BME280;51042;49.696;10.808;2023-02-28T13:13:23;99355.69;;;4.98;49.25
64080;BME280;51042;49.696;10.808;2023-02-28T13:16:03;99352.38;;;5.19;50.02
64080;BME280;51042;49.696;10.808;2023-02-28T13:18:33;99353.34;;;5.41;48.51
64080;BME280;51042;49.696;10.808;2023-02-28T13:20:58;99346.31;;;4.92;48.60
64080;BME280;51042;49.696;10.808;2023-02-28T13:24:08;99336.03;;;4.75;49.13
64080;BME280;51042;49.696;10.808;2023-02-28T13:26:17;99345.91;;;5.38;49.30
64080;BME280;51042;49.696;10.808;2023-02-28T13:31:13;99340.50;;;4.93;49.19
64080;BME280;51042;49.696;10.808;2023-02-28T13:38:59;99328.16;;;5.07;50.72
64080;BME280;51042;49.696;10.808;2023-02-28T13:44:04;99334.31;;;5.44;49.14
64080;BME280;51042;49.696;10.808;2023-02-28T13:46:30;99335.16;;;5.52;51.00
64080;BME280;51042;49.696;10.808;2023-02-28T13:48:56;99330.00;;;5.94;48.56
64080;BME280;51042;49.696;10.808;2023-02-28T13:51:42;99331.72;;;5.14;48.60
64080;BME280;51042;49.696;10.808;2023-02-28T13:57:11;99334.78;;;5.57;49.56
64080;BME280;51042;49.696;10.808;2023-02-28T13:59:46;99330.28;;;5.24;49.76
64080;BME280;51042;49.696;10.808;2023-02-28T14:05:05;99329.28;;;4.99;49.00
64080;BME280;51042;49.696;10.808;2023-02-28T14:07:32;99327.81;;;4.71;49.45
64080;BME280;51042;49.696;10.808;2023-02-28T14:10:02;99320.41;;;5.05;49.18
64080;BME280;51042;49.696;10.808;2023-02-28T14:15:27;99319.84;;;4.89;48.82
64080;BME280;51042;49.696;10.808;2023-02-28T14:17:54;99323.84;;;4.62;49.78
64080;BME280;51042;49.696;10.808;2023-02-28T14:20:20;99326.59;;;4.65;50.58
64080;BME280;51042;49.696;10.808;2023-02-28T14:22:58;99323.44;;;4.60;50.57
64080;BME280;51042;49.696;10.808;2023-02-28T14:36:00;99322.78;;;4.70;49.51
64080;BME280;51042;49.696;10.808;2023-02-28T14:38:27;99320.72;;;4.60;50.94
64080;BME280;51042;49.696;10.808;2023-02-28T14:40:55;99312.56;;;4.60;50.66
64080;BME280;51042;49.696;10.808;2023-02-28T14:43:22;99317.47;;;4.47;51.00
64080;BME280;51042;49.696;10.808;2023-02-28T14:45:55;99319.72;;;4.38;51.05
64080;BME280;51042;49.696;10.808;2023-02-28T14:48:21;99312.00;;;4.43;51.41
64080;BME280;51042;49.696;10.808;2023-02-28T14:50:48;99305.59;;;4.62;51.02
64080;BME280;51042;49.696;10.808;2023-02-28T14:53:18;99303.75;;;4.70;50.89
64080;BME280;51042;49.696;10.808;2023-02-28T14:55:44;99304.47;;;4.67;52.23
64080;BME280;51042;49.696;10.808;2023-02-28T15:01:09;99298.53;;;4.54;51.05
64080;BME280;51042;49.696;10.808;2023-02-28T15:03:35;99298.56;;;4.58;50.58